createdAt,value
2022-08-17T00:00:34.570Z,24.11
2022-08-17T00:03:08.437Z,23.46
2022-08-17T00:05:43.723Z,23.46
2022-08-17T00:08:12.535Z,23.73
2022-08-17T00:10:41.642Z,23.71
2022-08-17T00:13:12.838Z,23.83
2022-08-17T00:15:43.546Z,23.82
2022-08-17T00:19:05.667Z,23.79
2022-08-17T00:21:01.458Z,23.77
2022-08-17T00:23:30.101Z,23.75
2022-08-17T00:25:58.508Z,23.68
2022-08-17T00:28:26.862Z,23.61
2022-08-17T00:31:01.079Z,23.48
2022-08-17T00:33:32.052Z,23.45
2022-08-17T00:36:02.055Z,22.64
2022-08-17T00:38:31.113Z,23.22
2022-08-17T00:41:02.586Z,22.85
2022-08-17T00:43:34.774Z,22.45
2022-08-17T00:46:08.868Z,22.28
2022-08-17T00:48:37.863Z,22.32
2022-08-17T00:51:13.197Z,22.51
2022-08-17T00:53:46.486Z,22.62
2022-08-17T00:56:21.037Z,22.77
2022-08-17T00:58:50.669Z,22.92
2022-08-17T01:01:21.373Z,22.90
2022-08-17T01:03:52.033Z,22.84
2022-08-17T01:06:22.442Z,22.43
2022-08-17T01:08:57.884Z,22.36
2022-08-17T01:11:27.022Z,22.86
2022-08-17T01:13:55.533Z,22.96
2022-08-17T01:16:28.407Z,22.94
2022-08-17T01:19:00.158Z,22.69
2022-08-17T01:21:34.470Z,22.91
2022-08-17T01:24:04.698Z,22.94
2022-08-17T01:26:34.669Z,22.87
2022-08-17T01:29:04.513Z,22.97
2022-08-17T01:31:37.253Z,22.50
2022-08-17T01:34:09.290Z,22.35
2022-08-17T01:36:38.819Z,22.27
2022-08-17T01:39:14.089Z,22.41
2022-08-17T01:41:42.802Z,22.58
2022-08-17T01:44:12.878Z,22.51
2022-08-17T01:46:41.244Z,22.68
2022-08-17T01:49:12.292Z,22.77
2022-08-17T01:51:41.529Z,22.79
2022-08-17T01:54:14.833Z,22.64
2022-08-17T01:56:47.150Z,22.43
2022-08-17T01:59:16.836Z,22.26
2022-08-17T02:01:46.206Z,22.50
2022-08-17T02:04:15.530Z,22.48
2022-08-17T02:06:52.894Z,22.37
2022-08-17T02:09:25.553Z,22.54
2022-08-17T02:11:55.202Z,22.64
2022-08-17T02:14:25.922Z,22.66
2022-08-17T02:16:56.230Z,22.04
2022-08-17T02:19:24.769Z,22.28
2022-08-17T02:21:55.016Z,22.41
2022-08-17T02:25:00.414Z,22.32
2022-08-17T02:27:20.485Z,22.44
2022-08-17T02:29:48.891Z,22.38
2022-08-17T02:32:20.938Z,22.41
2022-08-17T02:34:56.896Z,22.44
2022-08-17T02:37:25.732Z,22.43
2022-08-17T02:39:57.118Z,22.40
2022-08-17T02:42:29.177Z,22.19
2022-08-17T02:44:57.521Z,22.40
2022-08-17T02:47:32.002Z,22.06
2022-08-17T02:50:00.330Z,21.85
2022-08-17T02:52:42.443Z,21.43
2022-08-17T02:55:16.687Z,21.87
2022-08-17T02:57:45.467Z,21.96
2022-08-17T03:00:16.918Z,22.09
2022-08-17T03:02:46.707Z,22.03
2022-08-17T03:05:18.154Z,21.95
2022-08-17T03:07:46.885Z,22.05
2022-08-17T03:10:17.405Z,22.12
2022-08-17T03:12:47.220Z,22.13
2022-08-17T03:15:17.876Z,22.10
2022-08-17T03:17:46.227Z,22.14
2022-08-17T03:20:16.223Z,21.05
2022-08-17T03:22:47.880Z,20.86
2022-08-17T03:25:26.099Z,21.01
2022-08-17T03:27:55.580Z,21.36
2022-08-17T03:30:25.972Z,21.67
2022-08-17T03:32:56.706Z,21.57
2022-08-17T03:35:27.544Z,21.69
2022-08-17T03:38:00.428Z,21.87
2022-08-17T03:40:55.810Z,21.97
2022-08-17T03:43:22.174Z,21.85
2022-08-17T03:46:27.138Z,21.38
2022-08-17T03:49:14.432Z,21.32
2022-08-17T03:52:00.405Z,21.27
2022-08-17T03:54:46.470Z,21.81
2022-08-17T03:57:16.511Z,22.07
2022-08-17T03:59:45.234Z,22.06
2022-08-17T04:02:18.987Z,22.05
2022-08-17T04:04:50.917Z,22.24
2022-08-17T04:07:20.539Z,21.58
2022-08-17T04:09:48.971Z,22.41
2022-08-17T04:12:20.828Z,22.50
2022-08-17T04:14:53.401Z,22.58
2022-08-17T04:17:25.553Z,22.24
2022-08-17T04:19:54.573Z,21.31
2022-08-17T04:22:33.179Z,21.85
2022-08-17T04:25:09.931Z,22.16
2022-08-17T04:27:39.779Z,21.76
2022-08-17T04:30:09.538Z,22.07
2022-08-17T04:33:05.366Z,22.38
2022-08-17T04:35:38.113Z,22.48
2022-08-17T04:38:06.713Z,22.34
2022-08-17T04:40:52.759Z,22.62
2022-08-17T04:43:24.367Z,22.36
2022-08-17T04:45:56.828Z,22.65
2022-08-17T04:48:27.846Z,22.49
2022-08-17T04:51:05.600Z,22.64
2022-08-17T04:53:34.097Z,22.74
2022-08-17T04:56:02.541Z,22.81
2022-08-17T04:58:32.380Z,22.96
2022-08-17T05:01:01.574Z,22.14
2022-08-17T05:03:30.624Z,21.79
2022-08-17T05:05:59.018Z,21.84
2022-08-17T05:08:27.739Z,22.35
2022-08-17T05:10:56.383Z,22.22
2022-08-17T05:13:27.168Z,22.33
2022-08-17T05:16:00.198Z,22.39
2022-08-17T05:18:30.243Z,21.90
2022-08-17T05:20:58.930Z,21.84
2022-08-17T05:23:42.025Z,21.85
2022-08-17T05:26:22.014Z,22.30
2022-08-17T05:28:59.530Z,22.80
2022-08-17T05:31:31.195Z,23.14
2022-08-17T05:34:00.368Z,23.07
2022-08-17T05:36:42.798Z,22.71
2022-08-17T05:39:16.277Z,22.66
2022-08-17T05:41:49.110Z,22.97
2022-08-17T05:44:21.128Z,23.17
2022-08-17T05:46:53.364Z,22.94
2022-08-17T05:49:27.304Z,23.47
2022-08-17T05:52:19.755Z,23.34
2022-08-17T05:55:03.927Z,23.07
2022-08-17T05:57:43.540Z,23.23
2022-08-17T06:00:29.987Z,23.17
2022-08-17T06:03:30.371Z,23.62
2022-08-17T06:06:31.233Z,23.81
2022-08-17T06:09:21.213Z,24.47
2022-08-17T06:11:58.631Z,24.34
2022-08-17T06:14:36.232Z,24.47
2022-08-17T06:17:09.730Z,24.92
2022-08-17T06:19:44.471Z,25.41
2022-08-17T06:22:16.726Z,25.49
2022-08-17T06:24:50.289Z,25.78
2022-08-17T06:27:25.029Z,26.14
2022-08-17T06:29:59.192Z,26.01
2022-08-17T06:32:28.210Z,25.79
2022-08-17T06:35:01.001Z,26.15
2022-08-17T06:37:50.243Z,25.88
2022-08-17T06:40:47.230Z,25.92
2022-08-17T06:43:28.393Z,26.67
2022-08-17T06:46:04.130Z,27.06
2022-08-17T06:48:42.777Z,26.95
2022-08-17T06:51:20.342Z,27.89
2022-08-17T06:53:55.676Z,28.10
2022-08-17T06:56:52.761Z,28.53
2022-08-17T06:59:53.169Z,28.26
2022-08-17T07:02:28.970Z,28.65
2022-08-17T07:05:16.444Z,29.30
2022-08-17T07:08:03.382Z,28.88
2022-08-17T07:10:37.966Z,29.47
2022-08-17T07:13:39.157Z,29.76
2022-08-17T07:16:17.262Z,29.84
2022-08-17T07:18:46.165Z,30.20
2022-08-17T07:21:26.489Z,30.30
2022-08-17T07:24:11.128Z,30.21
2022-08-17T07:27:10.126Z,29.93
2022-08-17T07:29:44.872Z,30.83
2022-08-17T07:32:18.633Z,30.88
2022-08-17T07:35:16.233Z,31.38
2022-08-17T07:37:53.315Z,31.84
2022-08-17T07:40:35.435Z,31.87
2022-08-17T07:43:11.502Z,31.86
2022-08-17T07:46:24.916Z,31.22
2022-08-17T07:48:56.166Z,31.88
2022-08-17T07:51:28.606Z,31.56
2022-08-17T07:54:13.660Z,31.92
2022-08-17T07:56:47.684Z,32.80
2022-08-17T07:59:23.117Z,33.07
2022-08-17T08:02:17.198Z,32.63
2022-08-17T08:05:00.174Z,33.65
2022-08-17T08:07:34.876Z,33.70
2022-08-17T08:10:10.848Z,33.75
2022-08-17T08:12:42.444Z,34.52
2022-08-17T08:15:19.046Z,34.94
2022-08-17T08:17:52.179Z,34.68
2022-08-17T08:20:51.261Z,35.04
2022-08-17T08:23:25.734Z,35.12
2022-08-17T08:26:20.589Z,34.87
2022-08-17T08:29:01.881Z,34.48
2022-08-17T08:31:42.385Z,35.09
2022-08-17T08:34:54.748Z,34.79
2022-08-17T08:37:33.215Z,35.31
2022-08-17T08:40:11.902Z,34.60
2022-08-17T08:42:51.144Z,35.35
2022-08-17T08:45:30.652Z,36.11
2022-08-17T08:48:45.956Z,36.53
2022-08-17T08:51:13.570Z,36.14
2022-08-17T08:53:48.745Z,35.50
2022-08-17T08:56:25.544Z,36.39
2022-08-17T08:59:02.013Z,35.44
2022-08-17T09:01:38.619Z,35.90
2022-08-17T09:04:26.173Z,35.36
2022-08-17T09:07:08.683Z,36.60
2022-08-17T09:10:00.609Z,36.52
2022-08-17T09:12:37.982Z,36.10
2022-08-17T09:15:14.634Z,36.65
2022-08-17T09:18:14.719Z,37.05
2022-08-17T09:20:50.213Z,36.47
2022-08-17T09:23:32.572Z,37.69
2022-08-17T09:26:07.971Z,37.78
2022-08-17T09:28:39.848Z,38.32
2022-08-17T09:31:11.109Z,38.24
2022-08-17T09:33:45.525Z,38.58
2022-08-17T09:36:20.054Z,38.51
2022-08-17T09:38:58.505Z,38.40
2022-08-17T09:41:49.182Z,38.32
2022-08-17T09:44:25.882Z,38.62
2022-08-17T09:47:01.330Z,38.42
2022-08-17T09:49:34.921Z,38.15
2022-08-17T09:52:08.823Z,38.30
2022-08-17T09:54:40.998Z,37.02
2022-08-17T09:57:31.780Z,37.29
2022-08-17T10:00:17.320Z,38.49
2022-08-17T10:03:19.053Z,37.08
2022-08-17T10:05:56.795Z,38.16
2022-08-17T10:08:38.201Z,38.20
2022-08-17T10:11:19.826Z,37.74
2022-08-17T10:13:54.775Z,38.97
2022-08-17T10:16:38.377Z,38.81
2022-08-17T10:19:17.558Z,38.25
2022-08-17T10:22:32.446Z,39.13
2022-08-17T10:25:22.588Z,38.98
2022-08-17T10:27:55.930Z,39.91
2022-08-17T10:30:27.815Z,40.38
2022-08-17T10:33:00.126Z,39.49
2022-08-17T10:35:34.158Z,38.97
2022-08-17T10:38:36.602Z,38.66
2022-08-17T10:41:19.425Z,39.89
2022-08-17T10:44:39.320Z,39.51
2022-08-17T10:46:56.734Z,39.16
2022-08-17T10:49:29.545Z,39.63
2022-08-17T10:52:00.149Z,39.87
2022-08-17T10:55:08.855Z,40.65
2022-08-17T10:57:42.949Z,41.00
2022-08-17T11:00:16.120Z,38.75
2022-08-17T11:02:50.034Z,36.92
2022-08-17T11:05:43.756Z,36.39
2022-08-17T11:08:31.302Z,37.59
2022-08-17T11:11:18.118Z,39.03
2022-08-17T11:13:56.790Z,38.63
2022-08-17T11:16:45.736Z,38.42
2022-08-17T11:19:45.988Z,37.49
2022-08-17T11:22:34.893Z,36.77
2022-08-17T11:25:15.205Z,36.04
2022-08-17T11:27:47.211Z,35.36
2022-08-17T11:30:50.552Z,35.45
2022-08-17T11:34:02.793Z,34.85
2022-08-17T11:36:45.566Z,34.59
2022-08-17T11:39:27.093Z,34.88
2022-08-17T11:41:58.733Z,34.85
2022-08-17T11:44:43.077Z,34.38
2022-08-17T11:47:41.589Z,34.13
2022-08-17T11:50:49.839Z,34.84
2022-08-17T11:54:03.599Z,35.68
2022-08-17T11:56:44.174Z,37.18
2022-08-17T11:59:49.313Z,37.31
2022-08-17T12:02:35.388Z,37.53
2022-08-17T12:05:27.534Z,38.33
2022-08-17T12:08:23.201Z,38.40
2022-08-17T12:11:00.473Z,38.22
2022-08-17T12:13:39.313Z,38.09
2022-08-17T12:16:10.189Z,38.91
2022-08-17T12:18:42.247Z,38.95
2022-08-17T12:21:32.178Z,39.68
2022-08-17T12:24:07.750Z,38.40
2022-08-17T12:26:38.458Z,36.73
2022-08-17T12:29:18.306Z,36.20
2022-08-17T12:32:03.547Z,36.37
2022-08-17T12:34:40.813Z,36.13
2022-08-17T12:37:16.529Z,35.50
2022-08-17T12:39:52.818Z,35.72
2022-08-17T12:42:27.509Z,35.64
2022-08-17T12:45:02.169Z,35.47
2022-08-17T12:47:32.050Z,35.90
2022-08-17T12:50:28.533Z,35.85
2022-08-17T12:53:01.919Z,35.25
2022-08-17T12:55:36.965Z,35.12
2022-08-17T12:58:07.379Z,34.66
2022-08-17T13:00:41.316Z,34.17
2022-08-17T13:03:19.483Z,33.83
2022-08-17T13:06:00.173Z,33.84
2022-08-17T13:08:31.418Z,33.55
2022-08-17T13:11:05.815Z,33.11
2022-08-17T13:13:36.284Z,33.34
2022-08-17T13:16:09.822Z,32.93
2022-08-17T13:18:43.182Z,33.49
2022-08-17T13:21:31.201Z,33.54
2022-08-17T13:24:02.802Z,33.79
2022-08-17T13:26:35.727Z,34.59
2022-08-17T13:29:08.278Z,35.44
2022-08-17T13:31:49.214Z,36.03
2022-08-17T13:34:38.130Z,36.52
2022-08-17T13:37:33.975Z,37.47
2022-08-17T13:40:26.335Z,37.71
2022-08-17T13:43:00.079Z,37.59
2022-08-17T13:45:39.258Z,37.90
2022-08-17T13:48:17.729Z,36.79
2022-08-17T13:50:49.419Z,36.47
2022-08-17T13:53:22.816Z,36.15
2022-08-17T13:55:54.117Z,36.36
2022-08-17T13:58:25.305Z,37.12
2022-08-17T14:00:54.089Z,35.85
2022-08-17T14:03:22.464Z,35.75
2022-08-17T14:05:52.700Z,34.55
2022-08-17T14:08:22.809Z,34.44
2022-08-17T14:10:59.365Z,34.45
2022-08-17T14:13:28.877Z,34.29
2022-08-17T14:15:57.730Z,33.98
2022-08-17T14:18:35.538Z,34.09
2022-08-17T14:21:15.248Z,33.86
2022-08-17T14:23:54.436Z,33.57
2022-08-17T14:26:24.051Z,33.62
2022-08-17T14:28:56.942Z,32.87
2022-08-17T14:31:27.817Z,32.99
2022-08-17T14:33:59.919Z,32.99
2022-08-17T14:36:28.631Z,32.89
2022-08-17T14:38:58.393Z,32.69
2022-08-17T14:41:27.158Z,32.39
2022-08-17T14:43:55.734Z,32.89
2022-08-17T14:46:24.174Z,32.80
2022-08-17T14:48:57.630Z,32.84
2022-08-17T14:51:27.709Z,33.15
2022-08-17T14:53:58.828Z,33.28
2022-08-17T14:56:27.617Z,33.33
2022-08-17T14:59:00.113Z,33.20
2022-08-17T15:01:29.085Z,34.13
2022-08-17T15:03:57.564Z,34.46
2022-08-17T15:06:26.040Z,34.35
2022-08-17T15:08:54.564Z,34.23
2022-08-17T15:11:24.475Z,33.78
2022-08-17T15:13:53.388Z,33.90
2022-08-17T15:16:22.799Z,34.03
2022-08-17T15:18:52.788Z,33.72
2022-08-17T15:21:21.340Z,33.64
2022-08-17T15:23:49.719Z,33.76
2022-08-17T15:26:20.671Z,33.50
2022-08-17T15:28:54.442Z,33.18
2022-08-17T15:31:32.028Z,33.05
2022-08-17T15:34:01.069Z,32.64
2022-08-17T15:36:29.510Z,32.32
2022-08-17T15:38:58.883Z,31.98
2022-08-17T15:41:28.513Z,32.20
2022-08-17T15:43:58.371Z,32.25
2022-08-17T15:46:27.676Z,32.04
2022-08-17T15:48:59.974Z,31.99
2022-08-17T15:51:30.488Z,31.93
2022-08-17T15:54:00.334Z,32.08
2022-08-17T15:56:33.036Z,31.90
2022-08-17T15:59:03.002Z,31.97
2022-08-17T16:03:01.285Z,31.92
2022-08-17T16:04:30.294Z,31.82
2022-08-17T16:07:00.474Z,31.31
2022-08-17T16:09:29.171Z,31.28
2022-08-17T16:11:57.576Z,31.14
2022-08-17T16:14:30.261Z,31.18
2022-08-17T16:17:03.371Z,31.16
2022-08-17T16:19:32.598Z,31.07
2022-08-17T16:22:01.193Z,31.03
2022-08-17T16:24:29.758Z,30.95
2022-08-17T16:26:58.169Z,30.54
2022-08-17T16:29:28.120Z,30.53
2022-08-17T16:31:57.154Z,30.65
2022-08-17T16:34:26.232Z,30.49
2022-08-17T16:36:56.494Z,29.97
2022-08-17T16:39:27.490Z,29.99
2022-08-17T16:41:56.578Z,30.24
2022-08-17T16:44:26.036Z,30.27
2022-08-17T16:46:57.622Z,29.89
2022-08-17T16:49:37.147Z,29.88
2022-08-17T16:52:10.890Z,29.99
2022-08-17T16:54:43.741Z,29.83
2022-08-17T16:57:13.313Z,29.83
2022-08-17T16:59:43.929Z,29.70
2022-08-17T17:02:24.980Z,29.38
2022-08-17T17:04:57.884Z,29.06
2022-08-17T17:07:41.633Z,29.23
2022-08-17T17:10:13.829Z,29.13
2022-08-17T17:13:02.616Z,29.09
2022-08-17T17:15:42.941Z,29.02
2022-08-17T17:18:15.502Z,28.70
2022-08-17T17:20:49.394Z,28.90
2022-08-17T17:23:32.692Z,28.76
2022-08-17T17:26:10.679Z,28.75
2022-08-17T17:28:50.670Z,28.41
2022-08-17T17:31:27.340Z,28.61
2022-08-17T17:34:00.644Z,28.44
2022-08-17T17:36:37.075Z,28.01
2022-08-17T17:39:11.558Z,27.81
2022-08-17T17:41:45.437Z,28.02
2022-08-17T17:44:18.000Z,28.17
2022-08-17T17:46:52.969Z,27.88
2022-08-17T17:49:23.475Z,28.18
2022-08-17T17:52:09.606Z,27.39
2022-08-17T17:55:04.638Z,27.61
2022-08-17T17:57:46.996Z,27.39
2022-08-17T18:00:20.811Z,27.43
2022-08-17T18:03:03.118Z,26.85
2022-08-17T18:05:54.090Z,27.74
2022-08-17T18:08:38.656Z,27.52
2022-08-17T18:11:24.087Z,27.39
2022-08-17T18:14:03.310Z,27.20
2022-08-17T18:16:36.818Z,27.28
2022-08-17T18:20:21.375Z,27.23
2022-08-17T18:23:05.105Z,27.26
2022-08-17T18:25:44.275Z,27.37
2022-08-17T18:28:25.557Z,27.08
2022-08-17T18:31:26.104Z,26.98
2022-08-17T18:33:57.654Z,27.18
2022-08-17T18:36:33.173Z,26.95
2022-08-17T18:39:17.911Z,26.95
2022-08-17T18:42:00.287Z,27.03
2022-08-17T18:44:30.510Z,26.97
2022-08-17T18:47:18.861Z,27.27
2022-08-17T18:49:49.425Z,27.38
2022-08-17T18:52:24.669Z,26.99
2022-08-17T18:55:09.897Z,26.83
2022-08-17T18:57:41.820Z,26.71
2022-08-17T19:00:16.460Z,26.96
2022-08-17T19:02:54.287Z,25.99
2022-08-17T19:05:34.441Z,26.67
2022-08-17T19:08:33.402Z,26.92
2022-08-17T19:11:06.847Z,26.98
2022-08-17T19:13:40.069Z,27.10
2022-08-17T19:16:14.769Z,27.15
2022-08-17T19:18:49.917Z,27.09
2022-08-17T19:21:22.964Z,27.06
2022-08-17T19:23:59.022Z,27.01
2022-08-17T19:26:53.955Z,26.61
2022-08-17T19:29:26.392Z,26.31
2022-08-17T19:32:00.150Z,26.29
2022-08-17T19:34:33.898Z,26.42
2022-08-17T19:37:07.044Z,26.13
2022-08-17T19:39:48.408Z,25.50
2022-08-17T19:42:32.532Z,25.60
2022-08-17T19:45:05.483Z,25.39
2022-08-17T19:47:54.805Z,25.35
2022-08-17T19:50:39.225Z,25.47
2022-08-17T19:53:22.056Z,25.60
2022-08-17T19:55:59.456Z,25.85
2022-08-17T19:58:43.265Z,25.96
2022-08-17T20:01:18.969Z,25.96
2022-08-17T20:03:54.871Z,26.12
2022-08-17T20:06:24.446Z,26.20
2022-08-17T20:09:04.663Z,25.90
2022-08-17T20:11:41.451Z,25.82
2022-08-17T20:14:15.265Z,26.00
2022-08-17T20:16:43.913Z,25.77
2022-08-17T20:19:23.105Z,25.99
2022-08-17T20:21:57.857Z,26.08
2022-08-17T20:24:33.570Z,26.03
2022-08-17T20:27:14.411Z,26.03
2022-08-17T20:30:02.391Z,25.88
2022-08-17T20:32:35.405Z,25.56
2022-08-17T20:35:23.801Z,25.73
2022-08-17T20:37:56.558Z,25.63
2022-08-17T20:40:29.544Z,25.67
2022-08-17T20:43:00.515Z,25.64
2022-08-17T20:46:08.703Z,25.58
2022-08-17T20:48:43.086Z,25.16
2022-08-17T20:51:20.347Z,24.44
2022-08-17T20:54:05.727Z,24.97
2022-08-17T20:56:53.844Z,24.83
2022-08-17T20:59:59.524Z,24.64
2022-08-17T21:02:32.421Z,24.55
2022-08-17T21:05:30.173Z,24.58
2022-08-17T21:08:01.913Z,24.83
2022-08-17T21:10:36.570Z,24.94
2022-08-17T21:13:46.462Z,24.93
2022-08-17T21:16:32.425Z,24.80
2022-08-17T21:19:31.275Z,24.92
2022-08-17T21:22:14.207Z,24.95
2022-08-17T21:24:59.623Z,24.98
2022-08-17T21:27:41.041Z,24.90
2022-08-17T21:30:44.730Z,24.76
2022-08-17T21:33:26.371Z,24.75
2022-08-17T21:36:23.812Z,24.51
2022-08-17T21:39:09.293Z,23.81
2022-08-17T21:41:48.305Z,23.68
2022-08-17T21:44:29.114Z,23.80
2022-08-17T21:47:16.731Z,23.69
2022-08-17T21:49:45.073Z,23.62
2022-08-17T21:52:17.975Z,23.19
2022-08-17T21:54:51.802Z,23.17
2022-08-17T21:57:23.530Z,23.53
2022-08-17T21:59:58.474Z,23.85
2022-08-17T22:02:30.205Z,24.10
2022-08-17T22:05:01.721Z,24.21
2022-08-17T22:07:41.149Z,23.97
2022-08-17T22:10:27.369Z,23.40
2022-08-17T22:13:16.853Z,23.81
2022-08-17T22:15:48.580Z,23.84
2022-08-17T22:18:22.938Z,23.90
2022-08-17T22:20:53.612Z,23.88
2022-08-17T22:23:52.423Z,23.92
2022-08-17T22:26:23.010Z,23.82
2022-08-17T22:28:53.834Z,23.77
2022-08-17T22:31:24.978Z,23.78
2022-08-17T22:34:07.958Z,23.74
2022-08-17T22:36:37.305Z,23.78
2022-08-17T22:39:41.609Z,23.47
2022-08-17T22:42:16.044Z,23.64
2022-08-17T22:44:49.969Z,23.62
2022-08-17T22:47:43.068Z,23.52
2022-08-17T22:50:22.602Z,23.55
2022-08-17T22:53:16.331Z,23.52
2022-08-17T22:56:09.935Z,23.48
2022-08-17T22:59:02.325Z,23.15
2022-08-17T23:01:34.867Z,23.41
2022-08-17T23:04:05.931Z,23.26
2022-08-17T23:06:37.666Z,22.82
2022-08-17T23:09:08.119Z,23.07
2022-08-17T23:11:49.307Z,22.86
2022-08-17T23:14:20.513Z,23.28
2022-08-17T23:16:50.338Z,23.28
2022-08-17T23:19:21.671Z,23.21
2022-08-17T23:21:55.477Z,22.98
2022-08-17T23:24:25.942Z,23.26
2022-08-17T23:26:57.395Z,23.16
2022-08-17T23:29:26.438Z,23.22
2022-08-17T23:31:55.196Z,23.20
2022-08-17T23:34:24.337Z,23.19
2022-08-17T23:36:53.313Z,23.14
2022-08-17T23:39:27.279Z,23.10
2022-08-17T23:41:58.789Z,23.17
2022-08-17T23:44:28.959Z,22.96
2022-08-17T23:46:57.615Z,22.48
2022-08-17T23:49:26.325Z,22.83
2022-08-17T23:51:55.323Z,22.72
2022-08-17T23:54:26.756Z,23.02
2022-08-17T23:56:55.106Z,22.95
2022-08-17T23:59:27.063Z,22.62
